ICE451 EGLL-BIKF
Flight info
| Callsign | ICE451 |
|---|---|
| Flight time | N/A |
| Altitude | 36000 |
| Route | ULTIB T420 TNT UL28 RODOL UM65 TENSO L603 BELOX DCT GOMUP/M081F360 DCT 60N015W DCT BREKI DCT BASLU BASLU4N |
| Aircraft | B763/H-SDE3FGHIM3RWXY/LB1 |
Departure
| Time | 2026-05-05 14:10 |
|---|---|
| Airport | London Heathrow Airport (EGLL) |
Arrival
| Time | N/A |
|---|---|
| Airport | Keflavik International Airport (BIKF) |
| Time | Latitude | Longitude | Altitude | Speed | Heading |
|---|---|---|---|---|---|
| 2026-05-05 13:43 | 51.47341 | -0.44197 | 94 ft | 0 kts | 270° |
| 2026-05-05 13:58 | 51.47340 | -0.44166 | 94 ft | 4 kts | 276° |
| 2026-05-05 13:58 | 51.47337 | -0.44123 | 94 ft | 4 kts | 273° |
| 2026-05-05 13:59 | 51.47356 | -0.44065 | 91 ft | 4 kts | 206° |
| 2026-05-05 13:59 | 51.47379 | -0.44059 | 93 ft | 4 kts | 178° |
| 2026-05-05 14:00 | 51.47395 | -0.44060 | 94 ft | 0 kts | 180° |
| 2026-05-05 14:01 | 51.47392 | -0.44060 | 96 ft | 3 kts | 180° |
| 2026-05-05 14:01 | 51.47303 | -0.44059 | 94 ft | 16 kts | 179° |
| 2026-05-05 14:01 | 51.47161 | -0.44057 | 94 ft | 24 kts | 180° |
| 2026-05-05 14:01 | 51.46998 | -0.44057 | 94 ft | 23 kts | 179° |
| 2026-05-05 14:02 | 51.46847 | -0.44055 | 97 ft | 21 kts | 180° |
| 2026-05-05 14:02 | 51.46714 | -0.44058 | 96 ft | 13 kts | 195° |
| 2026-05-05 14:02 | 51.46692 | -0.44084 | 98 ft | 4 kts | 236° |
| 2026-05-05 14:02 | 51.46678 | -0.44126 | 96 ft | 2 kts | 259° |
| 2026-05-05 14:03 | 51.46667 | -0.44316 | 94 ft | 25 kts | 270° |
| 2026-05-05 14:03 | 51.46665 | -0.44567 | 94 ft | 21 kts | 270° |
| 2026-05-05 14:03 | 51.46664 | -0.44787 | 94 ft | 19 kts | 270° |
| 2026-05-05 14:03 | 51.46664 | -0.44987 | 94 ft | 17 kts | 270° |
| 2026-05-05 14:04 | 51.46664 | -0.45163 | 94 ft | 15 kts | 270° |
| 2026-05-05 14:04 | 51.46663 | -0.45320 | 94 ft | 13 kts | 270° |
| 2026-05-05 14:04 | 51.46663 | -0.45462 | 94 ft | 12 kts | 270° |
| 2026-05-05 14:04 | 51.46663 | -0.45592 | 94 ft | 11 kts | 270° |
| 2026-05-05 14:05 | 51.46662 | -0.45709 | 94 ft | 10 kts | 270° |
| 2026-05-05 14:05 | 51.46662 | -0.45817 | 94 ft | 10 kts | 270° |
| 2026-05-05 14:05 | 51.46662 | -0.45924 | 94 ft | 9 kts | 270° |
| 2026-05-05 14:05 | 51.46662 | -0.46134 | 94 ft | 30 kts | 268° |
| 2026-05-05 14:06 | 51.46660 | -0.46471 | 97 ft | 28 kts | 272° |
| 2026-05-05 14:06 | 51.46659 | -0.46772 | 97 ft | 26 kts | 269° |
| 2026-05-05 14:06 | 51.46657 | -0.47047 | 97 ft | 24 kts | 269° |
| 2026-05-05 14:06 | 51.46657 | -0.47302 | 97 ft | 22 kts | 270° |
| 2026-05-05 14:07 | 51.46655 | -0.47626 | 95 ft | 41 kts | 270° |
| 2026-05-05 14:07 | 51.46653 | -0.48030 | 94 ft | 21 kts | 266° |
| 2026-05-05 14:07 | 51.46643 | -0.48181 | 96 ft | 1 kts | 234° |
| 2026-05-05 14:07 | 51.46614 | -0.48207 | 98 ft | 14 kts | 193° |
| 2026-05-05 14:08 | 51.46499 | -0.48171 | 97 ft | 13 kts | 128° |
| 2026-05-05 14:08 | 51.46481 | -0.48094 | 96 ft | 2 kts | 94° |
| 2026-05-05 14:08 | 51.46480 | -0.48076 | 95 ft | 2 kts | 92° |
| 2026-05-05 14:08 | 51.46479 | -0.48031 | 95 ft | 12 kts | 89° |
| 2026-05-05 14:09 | 51.46484 | -0.47640 | 96 ft | 61 kts | 91° |
| 2026-05-05 14:09 | 51.46483 | -0.46675 | 97 ft | 110 kts | 90° |
| 2026-05-05 14:09 | 51.46489 | -0.45216 | 96 ft | 150 kts | 89° |
| 2026-05-05 14:09 | 51.46474 | -0.43375 | 225 ft | 175 kts | 88° |
| 2026-05-05 14:10 | 51.46450 | -0.41349 | 639 ft | 190 kts | 89° |
| 2026-05-05 14:10 | 51.46799 | -0.39148 | 704 ft | 221 kts | 53° |
| 2026-05-05 14:10 | 51.48027 | -0.37603 | 1119 ft | 230 kts | 20° |
| 2026-05-05 14:10 | 51.49602 | -0.37151 | 1651 ft | 229 kts | 9° |
| 2026-05-05 14:11 | 51.51167 | -0.36530 | 1984 ft | 235 kts | 19° |
| 2026-05-05 14:11 | 51.52726 | -0.35497 | 2202 ft | 252 kts | 26° |
| 2026-05-05 14:11 | 51.54271 | -0.34087 | 2529 ft | 266 kts | 32° |
| 2026-05-05 14:11 | 51.55836 | -0.32400 | 2941 ft | 276 kts | 35° |
| 2026-05-05 14:12 | 51.57406 | -0.30550 | 3424 ft | 282 kts | 38° |
| 2026-05-05 14:12 | 51.58865 | -0.28438 | 4004 ft | 283 kts | 43° |
| 2026-05-05 14:12 | 51.60533 | -0.26820 | 4463 ft | 289 kts | 16° |
| 2026-05-05 14:12 | 51.62525 | -0.26409 | 4989 ft | 291 kts | 356° |
| 2026-05-05 14:13 | 51.64473 | -0.27304 | 5484 ft | 295 kts | 333° |
| 2026-05-05 14:13 | 51.66233 | -0.29013 | 6079 ft | 297 kts | 328° |
| 2026-05-05 14:13 | 51.67972 | -0.30858 | 6564 ft | 301 kts | 326° |
| 2026-05-05 14:13 | 51.69689 | -0.32807 | 7063 ft | 303 kts | 323° |
| 2026-05-05 14:14 | 51.71299 | -0.34956 | 7511 ft | 306 kts | 319° |
| 2026-05-05 14:14 | 51.72935 | -0.37240 | 8008 ft | 308 kts | 320° |
| 2026-05-05 14:14 | 51.74568 | -0.39451 | 8340 ft | 311 kts | 321° |
| 2026-05-05 14:14 | 51.76234 | -0.41686 | 8756 ft | 313 kts | 321° |
| 2026-05-05 14:15 | 51.77913 | -0.43946 | 9201 ft | 314 kts | 320° |
| 2026-05-05 14:15 | 51.79591 | -0.46228 | 9647 ft | 316 kts | 320° |
| 2026-05-05 14:15 | 51.81278 | -0.48519 | 10057 ft | 318 kts | 320° |
| 2026-05-05 14:15 | 51.82986 | -0.50831 | 10408 ft | 322 kts | 320° |
| 2026-05-05 14:16 | 51.84698 | -0.53159 | 10851 ft | 323 kts | 320° |
| 2026-05-05 14:16 | 51.86426 | -0.55510 | 11248 ft | 327 kts | 320° |
| 2026-05-05 14:16 | 51.88171 | -0.57884 | 11661 ft | 329 kts | 320° |
| 2026-05-05 14:16 | 51.89926 | -0.60274 | 12081 ft | 331 kts | 320° |
| 2026-05-05 14:17 | 51.91688 | -0.62677 | 12452 ft | 333 kts | 320° |
| 2026-05-05 14:17 | 51.93466 | -0.65105 | 12833 ft | 334 kts | 320° |
| 2026-05-05 14:17 | 51.95250 | -0.67544 | 13196 ft | 337 kts | 319° |
| 2026-05-05 14:17 | 51.97052 | -0.70011 | 13551 ft | 339 kts | 319° |
| 2026-05-05 14:18 | 51.98859 | -0.72486 | 13872 ft | 341 kts | 319° |
| 2026-05-05 14:18 | 52.00677 | -0.74978 | 14178 ft | 343 kts | 319° |
| 2026-05-05 14:18 | 52.02477 | -0.77448 | 14472 ft | 344 kts | 319° |
| 2026-05-05 14:18 | 52.04312 | -0.79971 | 14783 ft | 346 kts | 319° |
| 2026-05-05 14:19 | 52.06148 | -0.82487 | 15151 ft | 345 kts | 318° |
| 2026-05-05 14:19 | 52.07983 | -0.85028 | 15433 ft | 348 kts | 318° |
| 2026-05-05 14:19 | 52.09828 | -0.87575 | 15756 ft | 348 kts | 318° |
| 2026-05-05 14:19 | 52.11685 | -0.90130 | 15984 ft | 350 kts | 318° |
| 2026-05-05 14:20 | 52.13543 | -0.92705 | 16184 ft | 351 kts | 318° |
| 2026-05-05 14:20 | 52.15412 | -0.95292 | 16440 ft | 353 kts | 318° |
| 2026-05-05 14:20 | 52.17288 | -0.97882 | 16712 ft | 354 kts | 319° |
| 2026-05-05 14:20 | 52.19170 | -1.00495 | 16905 ft | 355 kts | 318° |
| 2026-05-05 14:21 | 52.21055 | -1.03112 | 17167 ft | 356 kts | 319° |
| 2026-05-05 14:21 | 52.22920 | -1.05706 | 17455 ft | 357 kts | 318° |
| 2026-05-05 14:21 | 52.24817 | -1.08349 | 17687 ft | 359 kts | 318° |
| 2026-05-05 14:21 | 52.26717 | -1.10989 | 17959 ft | 359 kts | 318° |
| 2026-05-05 14:22 | 52.28622 | -1.13647 | 18245 ft | 359 kts | 318° |
| 2026-05-05 14:22 | 52.30523 | -1.16307 | 18471 ft | 360 kts | 318° |
| 2026-05-05 14:22 | 52.32432 | -1.18975 | 18675 ft | 362 kts | 318° |
| 2026-05-05 14:22 | 52.34349 | -1.21656 | 18872 ft | 363 kts | 317° |
| 2026-05-05 14:23 | 52.36268 | -1.24347 | 19050 ft | 364 kts | 317° |
| 2026-05-05 14:23 | 52.38193 | -1.27049 | 19255 ft | 365 kts | 317° |
| 2026-05-05 14:23 | 52.40127 | -1.29765 | 19444 ft | 366 kts | 317° |
| 2026-05-05 14:23 | 52.42064 | -1.32489 | 19644 ft | 368 kts | 317° |
| 2026-05-05 14:24 | 52.44006 | -1.35224 | 19825 ft | 369 kts | 317° |
| 2026-05-05 14:24 | 52.45956 | -1.37973 | 19992 ft | 370 kts | 317° |
| 2026-05-05 14:24 | 52.47907 | -1.40728 | 20161 ft | 371 kts | 317° |
| 2026-05-05 14:24 | 52.49867 | -1.43499 | 20351 ft | 372 kts | 317° |
| 2026-05-05 14:25 | 52.51808 | -1.46244 | 20548 ft | 373 kts | 317° |
| 2026-05-05 14:25 | 52.53778 | -1.49035 | 20751 ft | 373 kts | 317° |
| 2026-05-05 14:25 | 52.55745 | -1.51830 | 20967 ft | 374 kts | 317° |
| 2026-05-05 14:25 | 52.57720 | -1.54633 | 21147 ft | 375 kts | 317° |
| 2026-05-05 14:26 | 52.59696 | -1.57441 | 21343 ft | 376 kts | 317° |
| 2026-05-05 14:26 | 52.61652 | -1.60226 | 21518 ft | 377 kts | 317° |
| 2026-05-05 14:26 | 52.63641 | -1.63062 | 21700 ft | 378 kts | 317° |
| 2026-05-05 14:26 | 52.65636 | -1.65909 | 21861 ft | 379 kts | 317° |
| 2026-05-05 14:27 | 52.67634 | -1.68765 | 22026 ft | 380 kts | 317° |
| 2026-05-05 14:27 | 52.69632 | -1.71624 | 22174 ft | 381 kts | 317° |
| 2026-05-05 14:27 | 52.71639 | -1.74500 | 22327 ft | 382 kts | 317° |
| 2026-05-05 14:27 | 52.73647 | -1.77379 | 22462 ft | 383 kts | 317° |
| 2026-05-05 14:28 | 52.75659 | -1.80269 | 22628 ft | 384 kts | 316° |
| 2026-05-05 14:28 | 52.77670 | -1.83157 | 22823 ft | 383 kts | 316° |
| 2026-05-05 14:28 | 52.79687 | -1.86074 | 22964 ft | 384 kts | 316° |
| 2026-05-05 14:28 | 52.81703 | -1.88979 | 23114 ft | 385 kts | 316° |
| 2026-05-05 14:29 | 52.83724 | -1.91892 | 23245 ft | 386 kts | 316° |
| 2026-05-05 14:29 | 52.85751 | -1.94821 | 23382 ft | 387 kts | 316° |
| 2026-05-05 14:29 | 52.87775 | -1.97752 | 23508 ft | 388 kts | 316° |
| 2026-05-05 14:29 | 52.89781 | -2.00659 | 23623 ft | 388 kts | 316° |
| 2026-05-05 14:30 | 52.91816 | -2.03610 | 23699 ft | 390 kts | 315° |
| 2026-05-05 14:30 | 52.93860 | -2.06582 | 23789 ft | 391 kts | 315° |
| 2026-05-05 14:30 | 52.95907 | -2.09563 | 23896 ft | 392 kts | 315° |
| 2026-05-05 14:30 | 52.97961 | -2.12555 | 23996 ft | 392 kts | 315° |
| 2026-05-05 14:31 | 53.00016 | -2.15553 | 24089 ft | 393 kts | 316° |
| 2026-05-05 14:31 | 53.02071 | -2.18553 | 24174 ft | 394 kts | 316° |
| 2026-05-05 14:31 | 53.04125 | -2.21557 | 24262 ft | 394 kts | 316° |
| 2026-05-05 14:31 | 53.06185 | -2.24574 | 24341 ft | 395 kts | 316° |
| 2026-05-05 14:32 | 53.08244 | -2.27595 | 24418 ft | 395 kts | 316° |
| 2026-05-05 14:32 | 53.10306 | -2.30624 | 24495 ft | 395 kts | 316° |
| 2026-05-05 14:32 | 53.12368 | -2.33657 | 24569 ft | 396 kts | 316° |
| 2026-05-05 14:32 | 53.14432 | -2.36695 | 24641 ft | 396 kts | 316° |
| 2026-05-05 14:33 | 53.16497 | -2.39739 | 24717 ft | 397 kts | 316° |
| 2026-05-05 14:33 | 53.18569 | -2.42799 | 24787 ft | 397 kts | 316° |
| 2026-05-05 14:33 | 53.20638 | -2.45858 | 24863 ft | 398 kts | 316° |
| 2026-05-05 14:33 | 53.22711 | -2.48927 | 24947 ft | 398 kts | 316° |
| 2026-05-05 14:34 | 53.24778 | -2.51991 | 25039 ft | 398 kts | 316° |
| 2026-05-05 14:34 | 53.26847 | -2.55061 | 25044 ft | 397 kts | 316° |
| 2026-05-05 14:34 | 53.28912 | -2.58132 | 25138 ft | 396 kts | 316° |
| 2026-05-05 14:34 | 53.30961 | -2.61181 | 25224 ft | 397 kts | 316° |
| 2026-05-05 14:35 | 53.33024 | -2.64251 | 25316 ft | 397 kts | 316° |
| 2026-05-05 14:35 | 53.35054 | -2.67285 | 25327 ft | 395 kts | 316° |
| 2026-05-05 14:35 | 53.37105 | -2.70354 | 25330 ft | 396 kts | 316° |
| 2026-05-05 14:35 | 53.39166 | -2.73432 | 25377 ft | 397 kts | 316° |
| 2026-05-05 14:36 | 53.41231 | -2.76531 | 25439 ft | 398 kts | 316° |
| 2026-05-05 14:36 | 53.43303 | -2.79636 | 25529 ft | 399 kts | 316° |
| 2026-05-05 14:36 | 53.45183 | -2.82460 | 25620 ft | 399 kts | 316° |
| 2026-05-05 14:36 | 53.47248 | -2.85570 | 25696 ft | 400 kts | 316° |
| 2026-05-05 14:37 | 53.49318 | -2.88686 | 25794 ft | 400 kts | 316° |
| 2026-05-05 14:37 | 53.51392 | -2.91814 | 25867 ft | 400 kts | 316° |
| 2026-05-05 14:37 | 53.53464 | -2.94944 | 25951 ft | 401 kts | 316° |
| 2026-05-05 14:37 | 53.55541 | -2.98091 | 26009 ft | 402 kts | 316° |
| 2026-05-05 14:38 | 53.57594 | -3.01195 | 26085 ft | 402 kts | 316° |
| 2026-05-05 14:38 | 53.59672 | -3.04350 | 26137 ft | 403 kts | 316° |
| 2026-05-05 14:38 | 53.61783 | -3.07557 | 26209 ft | 403 kts | 316° |
| 2026-05-05 14:38 | 53.63839 | -3.10677 | 26295 ft | 403 kts | 315° |
| 2026-05-05 14:39 | 53.65923 | -3.13861 | 26377 ft | 403 kts | 316° |
| 2026-05-05 14:39 | 53.68005 | -3.17034 | 26429 ft | 404 kts | 316° |
| 2026-05-05 14:39 | 53.70092 | -3.20218 | 26490 ft | 404 kts | 315° |
| 2026-05-05 14:39 | 53.72177 | -3.23401 | 26569 ft | 404 kts | 315° |
| 2026-05-05 14:40 | 53.74257 | -3.26599 | 26584 ft | 402 kts | 315° |
| 2026-05-05 14:40 | 53.76321 | -3.29765 | 26588 ft | 402 kts | 315° |
| 2026-05-05 14:40 | 53.78395 | -3.32945 | 26837 ft | 398 kts | 315° |
| 2026-05-05 14:40 | 53.80424 | -3.36065 | 27193 ft | 391 kts | 315° |
| 2026-05-05 14:41 | 53.82422 | -3.39144 | 27551 ft | 385 kts | 315° |
| 2026-05-05 14:41 | 53.83991 | -3.41606 | 34905 ft | 0 kts | 311° |
| 2026-05-05 14:41 | 53.85741 | -3.44598 | 35881 ft | 391 kts | 317° |
| 2026-05-05 14:41 | 53.87807 | -3.47691 | 35829 ft | 395 kts | 316° |
| 2026-05-05 14:42 | 53.89833 | -3.50848 | 35948 ft | 394 kts | 312° |
| 2026-05-05 14:42 | 53.91695 | -3.54266 | 36021 ft | 395 kts | 310° |
| 2026-05-05 14:42 | 53.95431 | -3.61183 | 36062 ft | 400 kts | 310° |
| 2026-05-05 14:43 | 53.99222 | -3.68191 | 36065 ft | 405 kts | 310° |
| 2026-05-05 14:43 | 54.03061 | -3.75296 | 36062 ft | 410 kts | 310° |
| 2026-05-05 14:44 | 54.06939 | -3.82499 | 36064 ft | 414 kts | 310° |
| 2026-05-05 14:44 | 54.10815 | -3.89717 | 36070 ft | 417 kts | 310° |
| 2026-05-05 14:45 | 54.14748 | -3.97064 | 36069 ft | 420 kts | 310° |
| 2026-05-05 14:45 | 54.18702 | -4.04470 | 36078 ft | 423 kts | 309° |
| 2026-05-05 14:46 | 54.22004 | -4.10678 | 36077 ft | 425 kts | 309° |
| 2026-05-05 14:46 | 54.25992 | -4.18192 | 36065 ft | 428 kts | 309° |
| 2026-05-05 14:47 | 54.30648 | -4.26998 | 36064 ft | 430 kts | 310° |
| 2026-05-05 14:47 | 54.34012 | -4.33374 | 36060 ft | 431 kts | 310° |
| 2026-05-05 14:48 | 54.38037 | -4.41032 | 36069 ft | 433 kts | 310° |
| 2026-05-05 14:48 | 54.42046 | -4.48682 | 36078 ft | 434 kts | 310° |
| 2026-05-05 14:49 | 54.46087 | -4.56417 | 36074 ft | 436 kts | 310° |
| 2026-05-05 14:49 | 54.50133 | -4.64187 | 36069 ft | 436 kts | 310° |
| 2026-05-05 14:50 | 54.54182 | -4.71987 | 36069 ft | 437 kts | 310° |
| 2026-05-05 14:50 | 54.58239 | -4.79829 | 36072 ft | 438 kts | 310° |
| 2026-05-05 14:51 | 54.62267 | -4.87643 | 36071 ft | 438 kts | 310° |
| 2026-05-05 14:51 | 54.66317 | -4.95518 | 36087 ft | 439 kts | 310° |
| 2026-05-05 14:52 | 54.70367 | -5.03425 | 36088 ft | 440 kts | 309° |
| 2026-05-05 14:52 | 54.74423 | -5.11366 | 36086 ft | 440 kts | 309° |
| 2026-05-05 14:53 | 54.78470 | -5.19317 | 36084 ft | 440 kts | 309° |
| 2026-05-05 14:53 | 54.82521 | -5.27302 | 36096 ft | 440 kts | 309° |
| 2026-05-05 14:54 | 54.86562 | -5.35293 | 36091 ft | 441 kts | 309° |
| 2026-05-05 14:54 | 54.90586 | -5.43275 | 36104 ft | 441 kts | 309° |
| 2026-05-05 14:55 | 54.94623 | -5.51314 | 36097 ft | 441 kts | 309° |
| 2026-05-05 14:55 | 54.98658 | -5.59372 | 36098 ft | 441 kts | 309° |
| 2026-05-05 14:56 | 55.02679 | -5.67429 | 36099 ft | 441 kts | 309° |
| 2026-05-05 14:56 | 55.06697 | -5.75510 | 36098 ft | 441 kts | 309° |
| 2026-05-05 14:57 | 55.10716 | -5.83618 | 36101 ft | 441 kts | 309° |
| 2026-05-05 14:57 | 55.14703 | -5.91686 | 36108 ft | 441 kts | 309° |
| 2026-05-05 14:58 | 55.18717 | -5.99840 | 36112 ft | 441 kts | 309° |
| 2026-05-05 14:58 | 55.22723 | -6.08003 | 36102 ft | 441 kts | 309° |
| 2026-05-05 14:59 | 55.26693 | -6.16122 | 36100 ft | 441 kts | 308° |
| 2026-05-05 14:59 | 55.30680 | -6.24301 | 36121 ft | 441 kts | 308° |
| 2026-05-05 15:00 | 55.33989 | -6.31109 | 36113 ft | 441 kts | 308° |
| 2026-05-05 15:00 | 55.38643 | -6.40720 | 36129 ft | 441 kts | 308° |
| 2026-05-05 15:01 | 55.42610 | -6.48942 | 36123 ft | 440 kts | 308° |
| 2026-05-05 15:01 | 55.46570 | -6.57178 | 36122 ft | 440 kts | 308° |
| 2026-05-05 15:02 | 55.50498 | -6.65373 | 36124 ft | 440 kts | 308° |
| 2026-05-05 15:02 | 55.54442 | -6.73633 | 36140 ft | 440 kts | 308° |
| 2026-05-05 15:03 | 55.58381 | -6.81908 | 36132 ft | 439 kts | 308° |
| 2026-05-05 15:03 | 55.62310 | -6.90191 | 36140 ft | 439 kts | 308° |
| 2026-05-05 15:04 | 55.66227 | -6.98476 | 36139 ft | 439 kts | 308° |
| 2026-05-05 15:04 | 55.70146 | -7.06796 | 36142 ft | 439 kts | 308° |
| 2026-05-05 15:05 | 55.76001 | -7.19278 | 36141 ft | 438 kts | 308° |
| 2026-05-05 15:06 | 55.79875 | -7.27572 | 36149 ft | 438 kts | 307° |
| 2026-05-05 15:06 | 55.83762 | -7.35922 | 36143 ft | 438 kts | 307° |
| 2026-05-05 15:07 | 55.87645 | -7.44292 | 36156 ft | 438 kts | 307° |
| 2026-05-05 15:07 | 55.91517 | -7.52669 | 36160 ft | 438 kts | 307° |
| 2026-05-05 15:08 | 55.95381 | -7.61057 | 36161 ft | 438 kts | 307° |
| 2026-05-05 15:08 | 55.99222 | -7.69423 | 36161 ft | 438 kts | 307° |
| 2026-05-05 15:09 | 56.03083 | -7.77863 | 36167 ft | 438 kts | 307° |
| 2026-05-05 15:09 | 56.06934 | -7.86311 | 36186 ft | 438 kts | 307° |
| 2026-05-05 15:10 | 56.10773 | -7.94763 | 36175 ft | 438 kts | 307° |
| 2026-05-05 15:10 | 56.14612 | -8.03241 | 36171 ft | 437 kts | 307° |
| 2026-05-05 15:11 | 56.18437 | -8.11722 | 36175 ft | 436 kts | 307° |
| 2026-05-05 15:11 | 56.22220 | -8.20139 | 36174 ft | 432 kts | 307° |
| 2026-05-05 15:12 | 56.25974 | -8.28516 | 36184 ft | 433 kts | 307° |
| 2026-05-05 15:12 | 56.29753 | -8.36983 | 36210 ft | 433 kts | 306° |
| 2026-05-05 15:13 | 56.33524 | -8.45460 | 36186 ft | 434 kts | 306° |
| 2026-05-05 15:13 | 56.37295 | -8.53966 | 36190 ft | 434 kts | 306° |
| 2026-05-05 15:14 | 56.41062 | -8.62494 | 36195 ft | 434 kts | 306° |
| 2026-05-05 15:14 | 56.44819 | -8.71028 | 36182 ft | 434 kts | 306° |
| 2026-05-05 15:15 | 56.48554 | -8.79545 | 36195 ft | 434 kts | 306° |
| 2026-05-05 15:15 | 56.52301 | -8.88118 | 36196 ft | 434 kts | 306° |
| 2026-05-05 15:16 | 56.56052 | -8.96729 | 36203 ft | 434 kts | 306° |
| 2026-05-05 15:16 | 56.59790 | -9.05342 | 36199 ft | 434 kts | 306° |
| 2026-05-05 15:17 | 56.63521 | -9.13972 | 36205 ft | 434 kts | 306° |
| 2026-05-05 15:17 | 56.67249 | -9.22623 | 36204 ft | 434 kts | 306° |
| 2026-05-05 15:18 | 56.70968 | -9.31286 | 36208 ft | 434 kts | 306° |
| 2026-05-05 15:18 | 56.74682 | -9.39968 | 36203 ft | 434 kts | 306° |
| 2026-05-05 15:19 | 56.78368 | -9.48616 | 36214 ft | 434 kts | 306° |
| 2026-05-05 15:19 | 56.82072 | -9.57336 | 36214 ft | 434 kts | 306° |
| 2026-05-05 15:20 | 56.85767 | -9.66067 | 36215 ft | 434 kts | 306° |
| 2026-05-05 15:20 | 56.89433 | -9.74762 | 36215 ft | 434 kts | 305° |
| 2026-05-05 15:21 | 56.93112 | -9.83519 | 36217 ft | 433 kts | 305° |
| 2026-05-05 15:21 | 56.96785 | -9.92292 | 36218 ft | 433 kts | 305° |
| 2026-05-05 15:21 | 56.98742 | -9.96494 | 36237 ft | 436 kts | 316° |
| 2026-05-05 15:22 | 57.01288 | -9.99557 | 36265 ft | 442 kts | 334° |
| 2026-05-05 15:22 | 57.04249 | -10.01173 | 36291 ft | 447 kts | 345° |
| 2026-05-05 15:22 | 57.07318 | -10.02150 | 36264 ft | 449 kts | 347° |
| 2026-05-05 15:23 | 57.13505 | -10.03794 | 36227 ft | 450 kts | 348° |
| 2026-05-05 15:23 | 57.19676 | -10.05378 | 36221 ft | 450 kts | 348° |
| 2026-05-05 15:24 | 57.25875 | -10.06940 | 36251 ft | 450 kts | 348° |
| 2026-05-05 15:24 | 57.32081 | -10.08502 | 36228 ft | 450 kts | 348° |
| 2026-05-05 15:25 | 57.38283 | -10.10110 | 36226 ft | 449 kts | 348° |